sensor_id;sensor_type;location;lat;lon;timestamp;temperature;humidity
21625;DHT22;10974;51.034;3.744;2022-12-10T04:18:12;0.00;99.90
21625;DHT22;10974;51.034;3.744;2022-12-10T04:20:38;-0.10;99.90
21625;DHT22;10974;51.034;3.744;2022-12-10T04:23:22;-0.20;99.90
21625;DHT22;10974;51.034;3.744;2022-12-10T04:26:07;-0.20;99.90
21625;DHT22;10974;51.034;3.744;2022-12-10T04:28:51;-0.10;99.90
21625;DHT22;10974;51.034;3.744;2022-12-10T04:31:16;-0.10;99.90
21625;DHT22;10974;51.034;3.744;2022-12-10T04:33:42;-0.10;99.90
21625;DHT22;10974;51.034;3.744;2022-12-10T04:36:08;-0.10;99.90
21625;DHT22;10974;51.034;3.744;2022-12-10T04:38:33;-0.10;99.90
21625;DHT22;10974;51.034;3.744;2022-12-10T04:40:59;0.00;99.90
21625;DHT22;10974;51.034;3.744;2022-12-10T04:43:25;0.00;99.90
21625;DHT22;10974;51.034;3.744;2022-12-10T04:45:55;-0.30;99.90
21625;DHT22;10974;51.034;3.744;2022-12-10T04:48:21;-0.10;99.90
21625;DHT22;10974;51.034;3.744;2022-12-10T04:50:46;-0.10;99.90
21625;DHT22;10974;51.034;3.744;2022-12-10T04:53:12;-0.30;99.90
21625;DHT22;10974;51.034;3.744;2022-12-10T04:55:38;-0.30;99.90
21625;DHT22;10974;51.034;3.744;2022-12-10T04:58:03;-0.30;99.90
21625;DHT22;10974;51.034;3.744;2022-12-10T05:00:29;-0.30;99.90
21625;DHT22;10974;51.034;3.744;2022-12-10T05:02:54;-0.10;99.90
21625;DHT22;10974;51.034;3.744;2022-12-10T05:05:20;-0.10;99.90
21625;DHT22;10974;51.034;3.744;2022-12-10T05:07:46;-0.20;99.90
21625;DHT22;10974;51.034;3.744;2022-12-10T05:10:11;-0.20;99.90
21625;DHT22;10974;51.034;3.744;2022-12-10T05:12:37;-0.30;99.90
21625;DHT22;10974;51.034;3.744;2022-12-10T05:15:03;-0.50;99.90
21625;DHT22;10974;51.034;3.744;2022-12-10T05:17:28;-0.40;99.90
21625;DHT22;10974;51.034;3.744;2022-12-10T05:19:54;-0.30;99.90
21625;DHT22;10974;51.034;3.744;2022-12-10T05:22:20;-0.20;99.90
21625;DHT22;10974;51.034;3.744;2022-12-10T05:25:04;-0.30;99.90
21625;DHT22;10974;51.034;3.744;2022-12-10T05:27:34;-0.30;99.90
21625;DHT22;10974;51.034;3.744;2022-12-10T05:29:59;-0.30;99.90
21625;DHT22;10974;51.034;3.744;2022-12-10T05:32:25;-0.30;99.90
21625;DHT22;10974;51.034;3.744;2022-12-10T05:34:51;-0.50;99.90
21625;DHT22;10974;51.034;3.744;2022-12-10T05:37:16;-0.40;99.90
21625;DHT22;10974;51.034;3.744;2022-12-10T05:39:42;-0.30;99.90
21625;DHT22;10974;51.034;3.744;2022-12-10T05:42:07;-0.40;99.90
21625;DHT22;10974;51.034;3.744;2022-12-10T05:44:33;-0.40;99.90
21625;DHT22;10974;51.034;3.744;2022-12-10T05:46:59;-0.40;99.90
21625;DHT22;10974;51.034;3.744;2022-12-10T05:49:24;-0.30;99.90
21625;DHT22;10974;51.034;3.744;2022-12-10T05:51:50;-0.40;99.90
21625;DHT22;10974;51.034;3.744;2022-12-10T05:54:16;-0.50;99.90
21625;DHT22;10974;51.034;3.744;2022-12-10T05:56:41;-0.60;99.90
21625;DHT22;10974;51.034;3.744;2022-12-10T05:59:07;-0.40;99.90
21625;DHT22;10974;51.034;3.744;2022-12-10T06:01:34;-0.30;99.90
21625;DHT22;10974;51.034;3.744;2022-12-10T06:04:02;-0.60;99.90
21625;DHT22;10974;51.034;3.744;2022-12-10T06:06:34;-0.50;99.90
21625;DHT22;10974;51.034;3.744;2022-12-10T06:09:01;-0.60;99.90
21625;DHT22;10974;51.034;3.744;2022-12-10T06:11:27;-0.60;99.90
21625;DHT22;10974;51.034;3.744;2022-12-10T06:13:54;-0.70;99.90
21625;DHT22;10974;51.034;3.744;2022-12-10T06:16:20;-0.60;99.90
21625;DHT22;10974;51.034;3.744;2022-12-10T06:18:46;-0.40;99.90
21625;DHT22;10974;51.034;3.744;2022-12-10T06:21:14;-0.40;99.90
21625;DHT22;10974;51.034;3.744;2022-12-10T06:23:41;-0.50;99.90
21625;DHT22;10974;51.034;3.744;2022-12-10T06:26:09;-0.60;99.90
21625;DHT22;10974;51.034;3.744;2022-12-10T06:28:36;-0.50;99.90
21625;DHT22;10974;51.034;3.744;2022-12-10T06:31:02;-0.40;99.90
21625;DHT22;10974;51.034;3.744;2022-12-10T06:33:28;-0.50;99.90
21625;DHT22;10974;51.034;3.744;2022-12-10T06:35:53;-0.50;99.90
21625;DHT22;10974;51.034;3.744;2022-12-10T06:38:19;-0.70;99.90
21625;DHT22;10974;51.034;3.744;2022-12-10T06:40:45;-0.30;99.90
21625;DHT22;10974;51.034;3.744;2022-12-10T06:43:10;-0.50;99.90
21625;DHT22;10974;51.034;3.744;2022-12-10T06:45:41;-0.50;99.90
21625;DHT22;10974;51.034;3.744;2022-12-10T06:48:08;-0.50;99.90
21625;DHT22;10974;51.034;3.744;2022-12-10T06:50:34;-0.40;99.90
21625;DHT22;10974;51.034;3.744;2022-12-10T06:53:00;-0.50;99.90
21625;DHT22;10974;51.034;3.744;2022-12-10T06:55:26;-0.60;99.90
21625;DHT22;10974;51.034;3.744;2022-12-10T06:57:53;-0.50;99.90
21625;DHT22;10974;51.034;3.744;2022-12-10T07:00:19;-0.30;99.90
21625;DHT22;10974;51.034;3.744;2022-12-10T07:02:45;-0.40;99.90
21625;DHT22;10974;51.034;3.744;2022-12-10T07:05:11;-0.50;99.90
21625;DHT22;10974;51.034;3.744;2022-12-10T07:07:37;-0.50;99.90
21625;DHT22;10974;51.034;3.744;2022-12-10T07:10:03;-0.30;99.90
21625;DHT22;10974;51.034;3.744;2022-12-10T07:12:29;-0.50;99.90
21625;DHT22;10974;51.034;3.744;2022-12-10T07:14:55;-0.30;99.90
21625;DHT22;10974;51.034;3.744;2022-12-10T07:17:20;-0.20;99.90
21625;DHT22;10974;51.034;3.744;2022-12-10T07:19:46;-0.40;99.90
21625;DHT22;10974;51.034;3.744;2022-12-10T07:22:12;-0.40;99.90
21625;DHT22;10974;51.034;3.744;2022-12-10T07:24:37;-0.40;99.90
21625;DHT22;10974;51.034;3.744;2022-12-10T07:27:06;-0.30;99.90
21625;DHT22;10974;51.034;3.744;2022-12-10T07:29:32;-0.20;99.90
21625;DHT22;10974;51.034;3.744;2022-12-10T07:31:58;-0.20;99.90
21625;DHT22;10974;51.034;3.744;2022-12-10T07:34:24;-0.40;99.90
21625;DHT22;10974;51.034;3.744;2022-12-10T07:36:49;-0.40;99.90
21625;DHT22;10974;51.034;3.744;2022-12-10T07:39:15;-0.40;99.90
21625;DHT22;10974;51.034;3.744;2022-12-10T07:41:51;-0.20;99.90
21625;DHT22;10974;51.034;3.744;2022-12-10T07:44:19;-0.10;99.90
21625;DHT22;10974;51.034;3.744;2022-12-10T07:46:48;-0.20;99.90
21625;DHT22;10974;51.034;3.744;2022-12-10T07:49:14;-0.10;99.90
21625;DHT22;10974;51.034;3.744;2022-12-10T07:51:47;-0.20;99.90
21625;DHT22;10974;51.034;3.744;2022-12-10T07:54:14;-0.30;99.90
21625;DHT22;10974;51.034;3.744;2022-12-10T07:56:40;-0.30;99.90
21625;DHT22;10974;51.034;3.744;2022-12-10T07:59:06;0.00;99.90
21625;DHT22;10974;51.034;3.744;2022-12-10T08:01:32;0.00;99.90
21625;DHT22;10974;51.034;3.744;2022-12-10T08:03:57;-0.20;99.90
21625;DHT22;10974;51.034;3.744;2022-12-10T08:06:25;-0.10;99.90
21625;DHT22;10974;51.034;3.744;2022-12-10T08:08:51;-0.20;99.90
21625;DHT22;10974;51.034;3.744;2022-12-10T08:11:19;-0.10;99.90
21625;DHT22;10974;51.034;3.744;2022-12-10T08:13:46;-0.10;99.90
21625;DHT22;10974;51.034;3.744;2022-12-10T08:16:17;0.10;99.90
21625;DHT22;10974;51.034;3.744;2022-12-10T08:18:44;-0.20;99.90
21625;DHT22;10974;51.034;3.744;2022-12-10T08:21:16;0.00;99.90
21625;DHT22;10974;51.034;3.744;2022-12-10T08:23:42;0.00;99.90
21625;DHT22;10974;51.034;3.744;2022-12-10T08:26:14;0.00;99.90
21625;DHT22;10974;51.034;3.744;2022-12-10T08:28:40;0.10;99.90
21625;DHT22;10974;51.034;3.744;2022-12-10T08:31:08;0.20;99.90
21625;DHT22;10974;51.034;3.744;2022-12-10T08:33:35;-0.10;99.90
21625;DHT22;10974;51.034;3.744;2022-12-10T08:36:04;-0.10;99.90
21625;DHT22;10974;51.034;3.744;2022-12-10T08:38:30;0.00;99.90
21625;DHT22;10974;51.034;3.744;2022-12-10T08:40:57;0.00;99.90
21625;DHT22;10974;51.034;3.744;2022-12-10T08:43:23;-0.10;99.90
21625;DHT22;10974;51.034;3.744;2022-12-10T08:45:48;0.20;99.90
21625;DHT22;10974;51.034;3.744;2022-12-10T08:48:14;0.10;99.90
21625;DHT22;10974;51.034;3.744;2022-12-10T08:50:40;0.00;99.90
21625;DHT22;10974;51.034;3.744;2022-12-10T08:53:06;-0.10;99.90
21625;DHT22;10974;51.034;3.744;2022-12-10T08:55:31;-0.10;99.90
21625;DHT22;10974;51.034;3.744;2022-12-10T08:57:57;0.10;99.90
21625;DHT22;10974;51.034;3.744;2022-12-10T09:00:24;0.00;99.90
21625;DHT22;10974;51.034;3.744;2022-12-10T09:02:49;-0.10;99.90
21625;DHT22;10974;51.034;3.744;2022-12-10T09:05:15;0.00;99.90
21625;DHT22;10974;51.034;3.744;2022-12-10T09:07:41;0.10;99.90
21625;DHT22;10974;51.034;3.744;2022-12-10T09:10:06;0.00;99.90
21625;DHT22;10974;51.034;3.744;2022-12-10T09:12:33;0.00;99.90
21625;DHT22;10974;51.034;3.744;2022-12-10T09:14:59;0.20;99.90
21625;DHT22;10974;51.034;3.744;2022-12-10T09:17:25;0.20;99.90
21625;DHT22;10974;51.034;3.744;2022-12-10T09:19:51;0.20;99.90
21625;DHT22;10974;51.034;3.744;2022-12-10T09:22:16;0.30;99.90
21625;DHT22;10974;51.034;3.744;2022-12-10T09:24:42;0.10;99.90
21625;DHT22;10974;51.034;3.744;2022-12-10T09:27:07;0.20;99.90
21625;DHT22;10974;51.034;3.744;2022-12-10T09:29:33;0.30;99.90
21625;DHT22;10974;51.034;3.744;2022-12-10T09:31:59;0.20;99.90
21625;DHT22;10974;51.034;3.744;2022-12-10T09:34:24;0.20;99.90
21625;DHT22;10974;51.034;3.744;2022-12-10T09:36:50;0.40;99.90
21625;DHT22;10974;51.034;3.744;2022-12-10T09:39:16;0.20;99.90
21625;DHT22;10974;51.034;3.744;2022-12-10T09:46:56;0.40;99.90
21625;DHT22;10974;51.034;3.744;2022-12-10T09:52:06;0.40;99.90
21625;DHT22;10974;51.034;3.744;2022-12-10T09:54:52;0.30;99.90
21625;DHT22;10974;51.034;3.744;2022-12-10T09:57:30;0.20;99.90
21625;DHT22;10974;51.034;3.744;2022-12-10T09:59:58;0.50;99.90
21625;DHT22;10974;51.034;3.744;2022-12-10T10:02:27;0.60;99.90
21625;DHT22;10974;51.034;3.744;2022-12-10T10:07:37;0.50;99.90
21625;DHT22;10974;51.034;3.744;2022-12-10T10:10:07;0.40;99.90
21625;DHT22;10974;51.034;3.744;2022-12-10T10:12:39;0.60;99.90
21625;DHT22;10974;51.034;3.744;2022-12-10T10:15:14;0.70;99.90
21625;DHT22;10974;51.034;3.744;2022-12-10T10:17:40;0.70;99.90
21625;DHT22;10974;51.034;3.744;2022-12-10T10:20:11;0.80;99.90
21625;DHT22;10974;51.034;3.744;2022-12-10T10:22:38;0.80;99.90
21625;DHT22;10974;51.034;3.744;2022-12-10T10:25:05;0.80;99.90
21625;DHT22;10974;51.034;3.744;2022-12-10T10:27:34;0.70;99.90
21625;DHT22;10974;51.034;3.744;2022-12-10T10:30:01;0.60;99.90
21625;DHT22;10974;51.034;3.744;2022-12-10T10:35:04;0.80;99.90
21625;DHT22;10974;51.034;3.744;2022-12-10T10:40:02;0.90;99.90
21625;DHT22;10974;51.034;3.744;2022-12-10T10:42:38;0.90;99.90
21625;DHT22;10974;51.034;3.744;2022-12-10T10:45:06;0.70;99.90
21625;DHT22;10974;51.034;3.744;2022-12-10T10:48:12;0.80;99.90
21625;DHT22;10974;51.034;3.744;2022-12-10T10:50:42;0.90;99.90
21625;DHT22;10974;51.034;3.744;2022-12-10T10:55:56;1.00;99.90
21625;DHT22;10974;51.034;3.744;2022-12-10T10:58:24;1.00;99.90
21625;DHT22;10974;51.034;3.744;2022-12-10T11:01:08;1.10;99.90
21625;DHT22;10974;51.034;3.744;2022-12-10T11:03:35;1.20;99.90
21625;DHT22;10974;51.034;3.744;2022-12-10T11:06:06;1.20;99.90
21625;DHT22;10974;51.034;3.744;2022-12-10T11:08:37;1.20;99.90
21625;DHT22;10974;51.034;3.744;2022-12-10T11:11:09;1.00;99.90
21625;DHT22;10974;51.034;3.744;2022-12-10T11:13:37;1.10;99.90
21625;DHT22;10974;51.034;3.744;2022-12-10T11:18:37;1.20;99.90
21625;DHT22;10974;51.034;3.744;2022-12-10T11:23:43;1.50;99.90
21625;DHT22;10974;51.034;3.744;2022-12-10T11:29:08;1.30;99.90
21625;DHT22;10974;51.034;3.744;2022-12-10T11:37:25;1.60;99.90
21625;DHT22;10974;51.034;3.744;2022-12-10T11:40:22;1.70;99.90
21625;DHT22;10974;51.034;3.744;2022-12-10T11:46:12;1.70;99.90
21625;DHT22;10974;51.034;3.744;2022-12-10T11:55:02;1.70;99.90
21625;DHT22;10974;51.034;3.744;2022-12-10T11:57:51;1.60;99.90
21625;DHT22;10974;51.034;3.744;2022-12-10T12:00:25;1.80;99.90
21625;DHT22;10974;51.034;3.744;2022-12-10T12:10:46;1.80;99.90
21625;DHT22;10974;51.034;3.744;2022-12-10T12:13:41;1.90;99.90
21625;DHT22;10974;51.034;3.744;2022-12-10T12:16:27;2.10;99.90
21625;DHT22;10974;51.034;3.744;2022-12-10T12:19:02;2.40;99.90
21625;DHT22;10974;51.034;3.744;2022-12-10T12:21:28;2.30;99.90
21625;DHT22;10974;51.034;3.744;2022-12-10T12:23:58;2.30;99.90
21625;DHT22;10974;51.034;3.744;2022-12-10T12:26:53;2.30;99.90
21625;DHT22;10974;51.034;3.744;2022-12-10T12:29:36;2.50;99.90
21625;DHT22;10974;51.034;3.744;2022-12-10T12:32:25;2.50;99.90
21625;DHT22;10974;51.034;3.744;2022-12-10T12:37:45;2.40;99.90
21625;DHT22;10974;51.034;3.744;2022-12-10T12:40:29;2.50;99.90
21625;DHT22;10974;51.034;3.744;2022-12-10T12:43:08;2.60;99.90
21625;DHT22;10974;51.034;3.744;2022-12-10T12:45:43;2.70;99.90
21625;DHT22;10974;51.034;3.744;2022-12-10T12:50:46;2.50;99.90
21625;DHT22;10974;51.034;3.744;2022-12-10T12:53:16;2.60;99.90
21625;DHT22;10974;51.034;3.744;2022-12-10T12:55:59;2.50;99.90
21625;DHT22;10974;51.034;3.744;2022-12-10T13:01:03;2.50;99.90
21625;DHT22;10974;51.034;3.744;2022-12-10T13:03:41;2.60;99.90
21625;DHT22;10974;51.034;3.744;2022-12-10T13:06:16;2.50;99.90
21625;DHT22;10974;51.034;3.744;2022-12-10T13:08:45;2.60;99.90
21625;DHT22;10974;51.034;3.744;2022-12-10T13:13:42;2.60;99.90
21625;DHT22;10974;51.034;3.744;2022-12-10T13:22:09;2.70;99.90
21625;DHT22;10974;51.034;3.744;2022-12-10T13:27:19;2.70;99.90
21625;DHT22;10974;51.034;3.744;2022-12-10T13:29:57;2.90;99.90
21625;DHT22;10974;51.034;3.744;2022-12-10T13:32:44;2.80;99.90
21625;DHT22;10974;51.034;3.744;2022-12-10T13:40:26;3.00;99.90
21625;DHT22;10974;51.034;3.744;2022-12-10T13:43:38;3.20;99.90
21625;DHT22;10974;51.034;3.744;2022-12-10T13:49:26;3.20;99.90
21625;DHT22;10974;51.034;3.744;2022-12-10T13:52:04;3.20;99.90
21625;DHT22;10974;51.034;3.744;2022-12-10T14:06:20;3.10;99.90
21625;DHT22;10974;51.034;3.744;2022-12-10T14:09:00;3.10;99.90
21625;DHT22;10974;51.034;3.744;2022-12-10T14:11:31;3.10;99.90
21625;DHT22;10974;51.034;3.744;2022-12-10T14:13:59;3.10;99.90
21625;DHT22;10974;51.034;3.744;2022-12-10T14:16:28;3.10;99.90
21625;DHT22;10974;51.034;3.744;2022-12-10T14:19:03;3.20;99.90
21625;DHT22;10974;51.034;3.744;2022-12-10T14:21:37;3.00;99.90
21625;DHT22;10974;51.034;3.744;2022-12-10T14:24:04;3.10;99.90
21625;DHT22;10974;51.034;3.744;2022-12-10T14:26:32;3.10;99.90
21625;DHT22;10974;51.034;3.744;2022-12-10T14:29:19;3.10;99.90
21625;DHT22;10974;51.034;3.744;2022-12-10T14:31:48;3.00;99.90
21625;DHT22;10974;51.034;3.744;2022-12-10T14:34:26;3.10;99.90
21625;DHT22;10974;51.034;3.744;2022-12-10T14:36:55;3.10;99.90
21625;DHT22;10974;51.034;3.744;2022-12-10T14:39:27;3.00;99.90
21625;DHT22;10974;51.034;3.744;2022-12-10T14:41:57;2.90;99.90
21625;DHT22;10974;51.034;3.744;2022-12-10T14:44:24;2.90;99.90
21625;DHT22;10974;51.034;3.744;2022-12-10T14:46:51;3.10;99.90
21625;DHT22;10974;51.034;3.744;2022-12-10T14:49:26;3.00;99.90
21625;DHT22;10974;51.034;3.744;2022-12-10T14:51:52;3.00;99.90
21625;DHT22;10974;51.034;3.744;2022-12-10T14:54:34;3.00;99.90
21625;DHT22;10974;51.034;3.744;2022-12-10T14:57:07;3.10;99.90
21625;DHT22;10974;51.034;3.744;2022-12-10T14:59:40;2.90;99.90
21625;DHT22;10974;51.034;3.744;2022-12-10T15:02:35;2.90;99.90
21625;DHT22;10974;51.034;3.744;2022-12-10T15:05:04;3.00;99.90
21625;DHT22;10974;51.034;3.744;2022-12-10T15:07:35;2.80;99.90
21625;DHT22;10974;51.034;3.744;2022-12-10T15:10:05;2.80;99.90
21625;DHT22;10974;51.034;3.744;2022-12-10T15:12:47;2.80;99.90
21625;DHT22;10974;51.034;3.744;2022-12-10T15:18:15;2.90;99.90
21625;DHT22;10974;51.034;3.744;2022-12-10T15:20:53;2.80;99.90
21625;DHT22;10974;51.034;3.744;2022-12-10T15:26:03;2.70;99.90
21625;DHT22;10974;51.034;3.744;2022-12-10T15:28:38;2.80;99.90
21625;DHT22;10974;51.034;3.744;2022-12-10T15:33:51;2.70;99.90
21625;DHT22;10974;51.034;3.744;2022-12-10T15:41:48;2.60;99.90
21625;DHT22;10974;51.034;3.744;2022-12-10T15:44:40;2.50;99.90
21625;DHT22;10974;51.034;3.744;2022-12-10T15:47:24;2.70;99.90
21625;DHT22;10974;51.034;3.744;2022-12-10T15:49:51;2.60;99.90
21625;DHT22;10974;51.034;3.744;2022-12-10T15:54:47;2.60;99.90
21625;DHT22;10974;51.034;3.744;2022-12-10T15:57:31;2.70;99.90
21625;DHT22;10974;51.034;3.744;2022-12-10T15:59:59;2.60;99.90
21625;DHT22;10974;51.034;3.744;2022-12-10T16:04:56;2.50;99.90
21625;DHT22;10974;51.034;3.744;2022-12-10T16:07:22;2.40;99.90
21625;DHT22;10974;51.034;3.744;2022-12-10T16:09:50;2.40;99.90
21625;DHT22;10974;51.034;3.744;2022-12-10T16:12:17;2.40;99.90
21625;DHT22;10974;51.034;3.744;2022-12-10T16:14:54;2.40;99.90
21625;DHT22;10974;51.034;3.744;2022-12-10T16:17:26;2.40;99.90
21625;DHT22;10974;51.034;3.744;2022-12-10T16:19:55;2.40;99.90
21625;DHT22;10974;51.034;3.744;2022-12-10T16:22:21;2.30;99.90
21625;DHT22;10974;51.034;3.744;2022-12-10T16:24:47;2.50;99.90
21625;DHT22;10974;51.034;3.744;2022-12-10T16:27:14;2.40;99.90
21625;DHT22;10974;51.034;3.744;2022-12-10T16:29:41;2.20;99.90
21625;DHT22;10974;51.034;3.744;2022-12-10T16:32:11;2.20;99.90
21625;DHT22;10974;51.034;3.744;2022-12-10T16:34:38;2.20;99.90
21625;DHT22;10974;51.034;3.744;2022-12-10T16:37:04;2.20;99.90
21625;DHT22;10974;51.034;3.744;2022-12-10T16:39:30;2.30;99.90
21625;DHT22;10974;51.034;3.744;2022-12-10T16:41:56;2.20;99.90
21625;DHT22;10974;51.034;3.744;2022-12-10T16:44:22;2.10;99.90
21625;DHT22;10974;51.034;3.744;2022-12-10T16:46:48;2.10;99.90
21625;DHT22;10974;51.034;3.744;2022-12-10T16:49:13;2.20;99.90
21625;DHT22;10974;51.034;3.744;2022-12-10T16:51:39;2.10;99.90
21625;DHT22;10974;51.034;3.744;2022-12-10T16:54:09;2.10;99.90
21625;DHT22;10974;51.034;3.744;2022-12-10T16:56:35;2.10;99.90
21625;DHT22;10974;51.034;3.744;2022-12-10T16:59:01;2.10;99.90
21625;DHT22;10974;51.034;3.744;2022-12-10T17:01:28;2.10;99.90
21625;DHT22;10974;51.034;3.744;2022-12-10T17:03:54;2.10;99.90
21625;DHT22;10974;51.034;3.744;2022-12-10T17:06:21;2.20;99.90
21625;DHT22;10974;51.034;3.744;2022-12-10T17:08:47;2.00;99.90
21625;DHT22;10974;51.034;3.744;2022-12-10T17:11:25;2.00;99.90
21625;DHT22;10974;51.034;3.744;2022-12-10T17:14:22;1.90;99.90
21625;DHT22;10974;51.034;3.744;2022-12-10T17:16:49;2.00;99.90
21625;DHT22;10974;51.034;3.744;2022-12-10T17:19:15;2.20;99.90
21625;DHT22;10974;51.034;3.744;2022-12-10T17:21:41;2.10;99.90
21625;DHT22;10974;51.034;3.744;2022-12-10T17:24:07;2.00;99.90
21625;DHT22;10974;51.034;3.744;2022-12-10T17:26:35;2.10;99.90
21625;DHT22;10974;51.034;3.744;2022-12-10T17:29:11;2.10;99.90
21625;DHT22;10974;51.034;3.744;2022-12-10T17:31:38;2.20;99.90
21625;DHT22;10974;51.034;3.744;2022-12-10T17:34:05;2.00;99.90
21625;DHT22;10974;51.034;3.744;2022-12-10T17:36:32;2.20;99.90
21625;DHT22;10974;51.034;3.744;2022-12-10T17:38:58;2.30;99.90
21625;DHT22;10974;51.034;3.744;2022-12-10T17:41:23;2.00;99.90
21625;DHT22;10974;51.034;3.744;2022-12-10T17:43:49;2.10;99.90
21625;DHT22;10974;51.034;3.744;2022-12-10T17:46:21;2.00;99.90
21625;DHT22;10974;51.034;3.744;2022-12-10T17:48:48;2.10;99.90
21625;DHT22;10974;51.034;3.744;2022-12-10T17:51:13;2.10;99.90
21625;DHT22;10974;51.034;3.744;2022-12-10T17:53:39;2.20;99.90
21625;DHT22;10974;51.034;3.744;2022-12-10T17:56:12;2.20;99.90
21625;DHT22;10974;51.034;3.744;2022-12-10T17:58:38;2.20;99.90
21625;DHT22;10974;51.034;3.744;2022-12-10T18:01:05;2.20;99.90
21625;DHT22;10974;51.034;3.744;2022-12-10T18:03:31;2.00;99.90
21625;DHT22;10974;51.034;3.744;2022-12-10T18:05:56;2.20;99.90
21625;DHT22;10974;51.034;3.744;2022-12-10T18:08:22;2.20;99.90
21625;DHT22;10974;51.034;3.744;2022-12-10T18:10:50;2.10;99.90
21625;DHT22;10974;51.034;3.744;2022-12-10T18:13:16;2.20;99.90
21625;DHT22;10974;51.034;3.744;2022-12-10T18:15:41;2.20;99.90
21625;DHT22;10974;51.034;3.744;2022-12-10T18:18:07;2.10;99.90
21625;DHT22;10974;51.034;3.744;2022-12-10T18:20:36;2.00;99.90
21625;DHT22;10974;51.034;3.744;2022-12-10T18:23:03;2.10;99.90
21625;DHT22;10974;51.034;3.744;2022-12-10T18:25:31;2.00;99.90
21625;DHT22;10974;51.034;3.744;2022-12-10T18:28:01;2.20;99.90
21625;DHT22;10974;51.034;3.744;2022-12-10T18:30:27;2.10;99.90
21625;DHT22;10974;51.034;3.744;2022-12-10T18:32:54;2.20;99.90
21625;DHT22;10974;51.034;3.744;2022-12-10T18:35:19;2.00;99.90
21625;DHT22;10974;51.034;3.744;2022-12-10T18:37:45;2.10;99.90
21625;DHT22;10974;51.034;3.744;2022-12-10T18:40:18;2.10;99.90
21625;DHT22;10974;51.034;3.744;2022-12-10T18:42:44;2.00;99.90
21625;DHT22;10974;51.034;3.744;2022-12-10T18:45:11;2.00;99.90
21625;DHT22;10974;51.034;3.744;2022-12-10T18:47:36;2.00;99.90
21625;DHT22;10974;51.034;3.744;2022-12-10T18:50:02;2.00;99.90
21625;DHT22;10974;51.034;3.744;2022-12-10T18:52:28;1.90;99.90
21625;DHT22;10974;51.034;3.744;2022-12-10T18:54:54;2.00;99.90
21625;DHT22;10974;51.034;3.744;2022-12-10T18:57:20;1.90;99.90
21625;DHT22;10974;51.034;3.744;2022-12-10T18:59:46;2.10;99.90
21625;DHT22;10974;51.034;3.744;2022-12-10T19:02:11;2.00;99.90
21625;DHT22;10974;51.034;3.744;2022-12-10T19:04:37;2.10;99.90
21625;DHT22;10974;51.034;3.744;2022-12-10T19:07:03;2.00;99.90
21625;DHT22;10974;51.034;3.744;2022-12-10T19:09:29;2.00;99.90
21625;DHT22;10974;51.034;3.744;2022-12-10T19:11:54;2.00;99.90
21625;DHT22;10974;51.034;3.744;2022-12-10T19:14:21;2.20;99.90
21625;DHT22;10974;51.034;3.744;2022-12-10T19:16:48;2.10;99.90
21625;DHT22;10974;51.034;3.744;2022-12-10T19:19:16;2.00;99.90
21625;DHT22;10974;51.034;3.744;2022-12-10T19:21:42;1.90;99.90
21625;DHT22;10974;51.034;3.744;2022-12-10T19:24:09;1.90;99.90
21625;DHT22;10974;51.034;3.744;2022-12-10T19:26:37;1.90;99.90
21625;DHT22;10974;51.034;3.744;2022-12-10T19:29:16;1.90;99.90
21625;DHT22;10974;51.034;3.744;2022-12-10T19:31:43;1.90;99.90
21625;DHT22;10974;51.034;3.744;2022-12-10T19:34:11;1.90;99.90
21625;DHT22;10974;51.034;3.744;2022-12-10T19:36:37;1.90;99.90
21625;DHT22;10974;51.034;3.744;2022-12-10T19:39:03;2.00;99.90
21625;DHT22;10974;51.034;3.744;2022-12-10T19:41:29;2.00;99.90
21625;DHT22;10974;51.034;3.744;2022-12-10T19:43:54;2.00;99.90
21625;DHT22;10974;51.034;3.744;2022-12-10T19:46:25;2.00;99.90
21625;DHT22;10974;51.034;3.744;2022-12-10T19:48:52;2.00;99.90
21625;DHT22;10974;51.034;3.744;2022-12-10T19:51:18;2.00;99.90
21625;DHT22;10974;51.034;3.744;2022-12-10T19:53:45;2.10;99.90
21625;DHT22;10974;51.034;3.744;2022-12-10T19:56:24;2.10;99.90
21625;DHT22;10974;51.034;3.744;2022-12-10T19:58:52;2.10;99.90
21625;DHT22;10974;51.034;3.744;2022-12-10T20:01:19;2.20;99.90
21625;DHT22;10974;51.034;3.744;2022-12-10T20:03:44;2.00;99.90
21625;DHT22;10974;51.034;3.744;2022-12-10T20:06:25;2.00;99.90
21625;DHT22;10974;51.034;3.744;2022-12-10T20:09:01;2.10;99.90
21625;DHT22;10974;51.034;3.744;2022-12-10T20:11:28;2.20;99.90
21625;DHT22;10974;51.034;3.744;2022-12-10T20:13:54;2.20;99.90
21625;DHT22;10974;51.034;3.744;2022-12-10T20:16:28;2.10;99.90
21625;DHT22;10974;51.034;3.744;2022-12-10T20:18:55;2.20;99.90
21625;DHT22;10974;51.034;3.744;2022-12-10T20:21:22;2.20;99.90
21625;DHT22;10974;51.034;3.744;2022-12-10T20:23:49;2.20;99.90
21625;DHT22;10974;51.034;3.744;2022-12-10T20:26:36;2.10;99.90
21625;DHT22;10974;51.034;3.744;2022-12-10T20:29:05;2.10;99.90
21625;DHT22;10974;51.034;3.744;2022-12-10T20:31:31;2.20;99.90
21625;DHT22;10974;51.034;3.744;2022-12-10T20:33:56;2.30;99.90
21625;DHT22;10974;51.034;3.744;2022-12-10T20:36:24;2.20;99.90
21625;DHT22;10974;51.034;3.744;2022-12-10T20:38:50;2.20;99.90
21625;DHT22;10974;51.034;3.744;2022-12-10T20:41:17;2.30;99.90
21625;DHT22;10974;51.034;3.744;2022-12-10T20:43:44;2.20;99.90
21625;DHT22;10974;51.034;3.744;2022-12-10T20:46:21;2.20;99.90
21625;DHT22;10974;51.034;3.744;2022-12-10T20:48:48;2.10;99.90
21625;DHT22;10974;51.034;3.744;2022-12-10T20:51:15;2.20;99.90
21625;DHT22;10974;51.034;3.744;2022-12-10T20:53:40;2.10;99.90
21625;DHT22;10974;51.034;3.744;2022-12-10T20:56:12;2.20;99.90
21625;DHT22;10974;51.034;3.744;2022-12-10T20:58:38;2.20;99.90
21625;DHT22;10974;51.034;3.744;2022-12-10T21:01:04;2.20;99.90
21625;DHT22;10974;51.034;3.744;2022-12-10T21:03:30;2.10;99.90
21625;DHT22;10974;51.034;3.744;2022-12-10T21:05:55;2.20;99.90
21625;DHT22;10974;51.034;3.744;2022-12-10T21:08:21;2.30;99.90
21625;DHT22;10974;51.034;3.744;2022-12-10T21:10:46;2.30;99.90
21625;DHT22;10974;51.034;3.744;2022-12-10T21:13:26;2.20;99.90
21625;DHT22;10974;51.034;3.744;2022-12-10T21:15:54;2.20;99.90
21625;DHT22;10974;51.034;3.744;2022-12-10T21:18:20;2.30;99.90
21625;DHT22;10974;51.034;3.744;2022-12-10T21:20:46;2.10;99.90
21625;DHT22;10974;51.034;3.744;2022-12-10T21:23:15;2.10;99.90
21625;DHT22;10974;51.034;3.744;2022-12-10T21:25:41;2.10;99.90
21625;DHT22;10974;51.034;3.744;2022-12-10T21:28:07;2.10;99.90
21625;DHT22;10974;51.034;3.744;2022-12-10T21:30:33;2.10;99.90
21625;DHT22;10974;51.034;3.744;2022-12-10T21:32:59;2.10;99.90
21625;DHT22;10974;51.034;3.744;2022-12-10T21:35:25;2.10;99.90
21625;DHT22;10974;51.034;3.744;2022-12-10T21:37:51;2.20;99.90
21625;DHT22;10974;51.034;3.744;2022-12-10T21:40:18;2.20;99.90
21625;DHT22;10974;51.034;3.744;2022-12-10T21:42:44;2.10;99.90
21625;DHT22;10974;51.034;3.744;2022-12-10T21:45:30;2.20;99.90
21625;DHT22;10974;51.034;3.744;2022-12-10T21:47:57;2.20;99.90
21625;DHT22;10974;51.034;3.744;2022-12-10T21:50:27;2.10;99.90
21625;DHT22;10974;51.034;3.744;2022-12-10T21:52:53;2.20;99.90
21625;DHT22;10974;51.034;3.744;2022-12-10T21:55:20;2.20;99.90
21625;DHT22;10974;51.034;3.744;2022-12-10T21:57:46;2.20;99.90
21625;DHT22;10974;51.034;3.744;2022-12-10T22:00:12;2.10;99.90